Terminal Aerodrome Forecast
Issued by NWS

Home | Current Version | Previous Version | Text Only | Print | Product List | Glossary On
Versions: 1 2 3 4 5 6 7 8 9 10 11 12 13 14 15 16 17 18 19 20 21 22 23 24 25 26
227
FTUS45 KRIW 222324
TAFPNA
TAF
KPNA 222324Z 2300/2324 26012G20KT P6SM VCTS SCT050CB BKN080
      TEMPO 2300/2302 VRB15G25KT 4SM TSRA BKN025CB OVC050
     FM230700 VRB03KT P6SM -SHRA OVC025
     FM231700 19008KT P6SM VCSH SCT030 OVC050
     FM232100 22012G20KT P6SM VCSH SCT020 OVC040
      AMD LTD TO CLD VIS AND WIND=

USA.gov is the U.S. government's official web portal to all federal, state and local government web resources and services.